createdAt,value
2023-05-06T00:00:02.241Z,9.73
2023-05-06T00:02:39.351Z,10.10
2023-05-06T00:05:04.929Z,9.30
2023-05-06T00:07:29.657Z,9.23
2023-05-06T00:09:54.434Z,9.95
2023-05-06T00:12:19.052Z,9.82
2023-05-06T00:14:44.197Z,8.95
2023-05-06T00:17:16.048Z,9.40
2023-05-06T00:19:42.404Z,9.55
2023-05-06T00:22:07.059Z,8.70
2023-05-06T00:24:31.621Z,9.02
2023-05-06T00:26:56.810Z,8.30
2023-05-06T00:29:21.616Z,8.63
2023-05-06T00:31:46.398Z,8.32
2023-05-06T00:34:12.172Z,8.15
2023-05-06T00:36:39.285Z,10.65
2023-05-06T00:39:04.009Z,8.85
2023-05-06T00:41:32.873Z,8.35
2023-05-06T00:43:57.509Z,8.52
2023-05-06T00:46:24.603Z,8.50
2023-05-06T00:48:50.578Z,7.93
2023-05-06T00:51:15.611Z,8.10
2023-05-06T00:53:42.127Z,8.23
2023-05-06T00:56:07.717Z,8.88
2023-05-06T00:58:32.560Z,8.45
2023-05-06T01:00:57.850Z,8.70
2023-05-06T01:03:22.975Z,8.38
2023-05-06T01:05:56.120Z,8.82
2023-05-06T01:08:30.618Z,8.50
2023-05-06T01:11:01.317Z,8.68
2023-05-06T01:13:36.986Z,7.95
2023-05-06T01:16:04.239Z,8.52
2023-05-06T01:18:31.529Z,8.70
2023-05-06T01:20:58.026Z,8.57
2023-05-06T01:23:26.773Z,7.97
2023-05-06T01:25:51.780Z,8.23
2023-05-06T01:28:16.461Z,8.70
2023-05-06T01:30:50.964Z,8.00
2023-05-06T01:33:21.712Z,8.88
2023-05-06T01:35:56.178Z,8.25
2023-05-06T01:38:31.536Z,8.60
2023-05-06T01:40:58.357Z,9.15
2023-05-06T01:43:26.213Z,8.35
2023-05-06T01:45:53.724Z,8.57
2023-05-06T01:48:19.183Z,8.43
2023-05-06T01:50:44.995Z,8.90
2023-05-06T01:53:09.476Z,8.80
2023-05-06T01:55:35.553Z,9.40
2023-05-06T01:58:00.186Z,7.93
2023-05-06T02:00:26.552Z,8.90
2023-05-06T02:02:52.089Z,8.18
2023-05-06T02:05:17.179Z,9.15
2023-05-06T02:07:46.247Z,8.20
2023-05-06T02:10:11.685Z,8.60
2023-05-06T02:12:41.699Z,8.38
2023-05-06T02:15:07.318Z,8.20
2023-05-06T02:17:38.882Z,8.10
2023-05-06T02:20:03.787Z,8.25
2023-05-06T02:22:29.241Z,8.35
2023-05-06T02:24:53.825Z,7.65
2023-05-06T02:27:19.320Z,7.40
2023-05-06T02:29:46.020Z,8.05
2023-05-06T02:32:11.024Z,7.57
2023-05-06T02:34:35.741Z,8.18
2023-05-06T02:37:01.023Z,8.05
2023-05-06T02:39:25.684Z,7.43
2023-05-06T02:41:50.499Z,7.50
2023-05-06T02:44:16.596Z,7.85
2023-05-06T02:46:43.696Z,7.97
2023-05-06T02:49:10.093Z,7.70
2023-05-06T02:51:35.054Z,8.15
2023-05-06T02:53:59.945Z,8.40
2023-05-06T02:56:24.467Z,8.15
2023-05-06T02:58:49.191Z,7.68
2023-05-06T03:01:15.271Z,7.95
2023-05-06T03:03:41.939Z,7.70
2023-05-06T03:06:06.943Z,7.57
2023-05-06T03:08:31.880Z,7.85
2023-05-06T03:10:56.848Z,8.10
2023-05-06T03:13:21.547Z,8.07
2023-05-06T03:15:46.212Z,7.82
2023-05-06T03:18:11.455Z,7.68
2023-05-06T03:20:38.539Z,7.95
2023-05-06T03:23:04.496Z,8.23
2023-05-06T03:25:32.299Z,8.48
2023-05-06T03:28:00.414Z,7.80
2023-05-06T03:32:57.255Z,8.05
2023-05-06T03:35:27.568Z,7.85
2023-05-06T03:38:02.907Z,7.80
2023-05-06T03:40:40.696Z,8.15
2023-05-06T03:43:05.393Z,8.30
2023-05-06T03:45:31.507Z,7.85
2023-05-06T03:47:59.171Z,7.45
2023-05-06T03:50:24.591Z,8.27
2023-05-06T03:52:51.746Z,8.15
2023-05-06T03:55:19.085Z,7.63
2023-05-06T03:57:45.795Z,8.77
2023-05-06T04:00:13.976Z,7.88
2023-05-06T04:02:42.856Z,7.80
2023-05-06T04:05:12.295Z,7.57
2023-05-06T04:07:37.691Z,8.02
2023-05-06T04:10:02.613Z,8.10
2023-05-06T04:12:34.302Z,7.60
2023-05-06T04:14:59.731Z,9.45
2023-05-06T04:17:25.175Z,7.60
2023-05-06T04:19:50.060Z,8.13
2023-05-06T04:22:26.885Z,7.95
2023-05-06T04:24:53.287Z,8.23
2023-05-06T04:27:18.229Z,8.13
2023-05-06T04:29:45.829Z,7.55
2023-05-06T04:32:11.840Z,8.10
2023-05-06T04:34:37.015Z,7.88
2023-05-06T04:37:03.792Z,8.57
2023-05-06T04:39:39.376Z,8.57
2023-05-06T04:42:05.332Z,8.68
2023-05-06T04:44:36.847Z,8.68
2023-05-06T04:47:08.213Z,8.90
2023-05-06T04:49:33.048Z,7.47
2023-05-06T04:51:59.403Z,7.20
2023-05-06T04:54:25.077Z,7.20
2023-05-06T04:56:49.877Z,6.97
2023-05-06T04:59:16.255Z,6.95
2023-05-06T05:01:43.209Z,6.57
2023-05-06T05:04:10.469Z,6.30
2023-05-06T05:06:35.909Z,6.63
2023-05-06T05:09:00.856Z,7.60
2023-05-06T05:11:26.813Z,7.00
2023-05-06T05:13:55.394Z,7.07
2023-05-06T05:16:21.479Z,6.53
2023-05-06T05:18:49.528Z,7.15
2023-05-06T05:21:21.140Z,6.95
2023-05-06T05:23:46.638Z,6.65
2023-05-06T05:26:11.838Z,6.30
2023-05-06T05:28:37.761Z,7.35
2023-05-06T05:31:04.495Z,6.75
2023-05-06T05:33:32.589Z,6.55
2023-05-06T05:35:57.679Z,6.20
2023-05-06T05:38:24.109Z,6.20
2023-05-06T05:40:48.744Z,6.68
2023-05-06T05:43:13.497Z,6.65
2023-05-06T05:45:39.883Z,6.65
2023-05-06T05:48:08.711Z,6.03
2023-05-06T05:50:33.734Z,5.95
2023-05-06T05:52:58.576Z,5.72
2023-05-06T05:55:47.728Z,5.38
2023-05-06T05:58:14.165Z,6.80
2023-05-06T06:00:40.189Z,6.13
2023-05-06T06:03:09.702Z,6.22
2023-05-06T06:05:36.235Z,6.25
2023-05-06T06:08:03.475Z,5.22
2023-05-06T06:10:31.255Z,5.47
2023-05-06T06:13:01.021Z,6.70
2023-05-06T06:15:29.391Z,5.78
2023-05-06T06:17:56.390Z,5.75
2023-05-06T06:20:23.947Z,6.35
2023-05-06T06:22:48.595Z,5.53
2023-05-06T06:25:13.826Z,5.65
2023-05-06T06:27:39.917Z,6.38
2023-05-06T06:30:06.591Z,5.70
2023-05-06T06:32:32.685Z,5.63
2023-05-06T06:34:57.922Z,5.97
2023-05-06T06:37:26.082Z,6.05
2023-05-06T06:39:50.789Z,6.45
2023-05-06T06:42:19.285Z,6.00
2023-05-06T06:44:57.546Z,6.10
2023-05-06T06:47:22.396Z,5.30
2023-05-06T06:49:46.938Z,6.05
2023-05-06T06:52:14.435Z,5.47
2023-05-06T06:54:39.600Z,4.57
2023-05-06T06:57:04.544Z,5.60
2023-05-06T06:59:31.452Z,5.80
2023-05-06T07:01:57.411Z,5.13
2023-05-06T07:04:22.021Z,4.82
2023-05-06T07:06:46.791Z,5.40
2023-05-06T07:09:12.105Z,4.97
2023-05-06T07:11:41.358Z,5.32
2023-05-06T07:14:07.635Z,5.43
2023-05-06T07:16:32.475Z,5.32
2023-05-06T07:18:58.822Z,5.68
2023-05-06T07:23:53.473Z,5.22
2023-05-06T07:26:19.178Z,5.78
2023-05-06T07:28:43.888Z,4.95
2023-05-06T07:31:09.139Z,5.40
2023-05-06T07:33:33.832Z,6.00
2023-05-06T07:36:01.557Z,6.18
2023-05-06T07:38:26.309Z,5.93
2023-05-06T07:40:50.969Z,4.93
2023-05-06T07:43:16.000Z,4.95
2023-05-06T07:45:41.211Z,5.10
2023-05-06T07:48:06.280Z,5.18
2023-05-06T07:50:31.925Z,5.25
2023-05-06T07:52:58.212Z,4.97
2023-05-06T07:55:24.916Z,5.03
2023-05-06T07:57:51.364Z,5.68
2023-05-06T08:00:16.810Z,4.78
2023-05-06T08:02:44.850Z,5.65
2023-05-06T08:05:10.865Z,5.13
2023-05-06T08:07:36.049Z,5.10
2023-05-06T08:10:04.455Z,4.70
2023-05-06T08:12:31.738Z,5.50
2023-05-06T08:14:56.722Z,4.85
2023-05-06T08:17:23.779Z,5.10
2023-05-06T08:19:49.108Z,4.93
2023-05-06T08:22:16.464Z,4.57
2023-05-06T08:24:42.207Z,5.72
2023-05-06T08:27:11.093Z,5.18
2023-05-06T08:29:38.114Z,4.95
2023-05-06T08:32:02.877Z,5.20
2023-05-06T08:34:27.847Z,5.40
2023-05-06T08:36:53.468Z,4.88
2023-05-06T08:39:18.600Z,5.78
2023-05-06T08:41:48.709Z,4.72
2023-05-06T08:44:17.271Z,3.85
2023-05-06T08:46:41.901Z,5.18
2023-05-06T08:49:07.300Z,5.25
2023-05-06T08:51:33.472Z,3.83
2023-05-06T08:54:02.289Z,5.40
2023-05-06T08:56:30.864Z,4.47
2023-05-06T08:59:00.009Z,5.38
2023-05-06T09:01:27.918Z,4.57
2023-05-06T09:03:53.947Z,5.13
2023-05-06T09:06:19.039Z,41.58
2023-05-06T09:08:46.165Z,7.05
2023-05-06T09:11:25.407Z,4.32
2023-05-06T09:13:53.397Z,4.78
2023-05-06T09:16:32.763Z,5.10
2023-05-06T09:18:58.005Z,4.45
2023-05-06T09:21:24.788Z,5.25
2023-05-06T09:23:49.512Z,4.90
2023-05-06T09:26:16.805Z,4.85
2023-05-06T09:28:47.024Z,4.43
2023-05-06T09:31:16.278Z,4.72
2023-05-06T09:33:42.546Z,4.60
2023-05-06T09:36:08.257Z,4.70
2023-05-06T09:38:33.314Z,4.60
2023-05-06T09:40:58.377Z,5.00
2023-05-06T09:43:23.278Z,4.05
2023-05-06T09:45:48.587Z,4.65
2023-05-06T09:48:13.233Z,4.75
2023-05-06T09:50:39.209Z,4.55
2023-05-06T09:53:06.900Z,5.10
2023-05-06T09:55:32.360Z,5.10
2023-05-06T09:57:58.619Z,3.63
2023-05-06T10:00:29.156Z,4.50
2023-05-06T10:02:54.480Z,4.53
2023-05-06T10:05:19.615Z,3.90
2023-05-06T10:07:48.353Z,4.78
2023-05-06T10:10:14.924Z,3.97
2023-05-06T10:12:40.346Z,4.13
2023-05-06T10:15:05.817Z,3.97
2023-05-06T10:17:33.099Z,3.95
2023-05-06T10:19:59.948Z,4.05
2023-05-06T10:22:34.701Z,3.70
2023-05-06T10:25:07.050Z,4.10
2023-05-06T10:27:36.693Z,4.05
2023-05-06T10:30:01.895Z,4.20
2023-05-06T10:32:33.800Z,4.05
2023-05-06T10:35:06.833Z,4.07
2023-05-06T10:37:33.242Z,3.40
2023-05-06T10:39:58.374Z,4.70
2023-05-06T10:42:29.396Z,3.30
2023-05-06T10:45:01.934Z,3.38
2023-05-06T10:47:30.005Z,4.30
2023-05-06T10:50:20.180Z,4.20
2023-05-06T10:52:47.133Z,3.40
2023-05-06T10:55:27.840Z,4.13
2023-05-06T10:57:56.644Z,3.80
2023-05-06T11:00:21.484Z,3.50
2023-05-06T11:02:47.655Z,3.20
2023-05-06T11:05:12.979Z,3.25
2023-05-06T11:07:37.980Z,2.70
2023-05-06T11:10:05.394Z,3.15
2023-05-06T11:12:51.150Z,3.03
2023-05-06T11:15:39.609Z,3.35
2023-05-06T11:18:50.443Z,3.50
2023-05-06T11:21:41.754Z,3.63
2023-05-06T11:24:25.525Z,3.88
2023-05-06T11:26:50.913Z,3.40
2023-05-06T11:29:17.735Z,2.95
2023-05-06T11:31:45.966Z,3.45
2023-05-06T11:34:14.657Z,3.17
2023-05-06T11:36:47.087Z,3.17
2023-05-06T11:39:12.015Z,2.75
2023-05-06T11:41:41.122Z,2.88
2023-05-06T11:44:05.871Z,2.38
2023-05-06T11:46:36.305Z,2.90
2023-05-06T11:49:02.498Z,2.72
2023-05-06T11:51:28.502Z,3.00
2023-05-06T11:53:54.266Z,2.88
2023-05-06T11:56:19.248Z,3.05
2023-05-06T11:58:44.350Z,3.03
2023-05-06T12:01:09.146Z,3.03
2023-05-06T12:03:36.113Z,2.28
2023-05-06T12:06:02.877Z,2.70
2023-05-06T12:08:31.688Z,2.47
2023-05-06T12:10:58.965Z,2.28
2023-05-06T12:13:26.485Z,2.70
2023-05-06T12:15:56.055Z,2.83
2023-05-06T12:18:21.516Z,2.25
2023-05-06T12:20:47.698Z,2.75
2023-05-06T12:23:15.488Z,2.25
2023-05-06T12:25:41.660Z,2.28
2023-05-06T12:28:15.759Z,2.45
2023-05-06T12:30:40.765Z,2.47
2023-05-06T12:33:05.678Z,2.33
2023-05-06T12:35:33.110Z,2.50
2023-05-06T12:37:58.484Z,2.00
2023-05-06T12:40:31.197Z,2.97
2023-05-06T12:43:01.099Z,2.58
2023-05-06T12:45:26.560Z,2.15
2023-05-06T12:47:55.446Z,2.60
2023-05-06T12:50:35.135Z,2.05
2023-05-06T12:53:00.026Z,2.10
2023-05-06T12:55:27.002Z,2.50
2023-05-06T12:57:52.209Z,2.28
2023-05-06T13:00:18.034Z,2.38
2023-05-06T13:02:43.093Z,2.17
2023-05-06T13:05:10.428Z,2.55
2023-05-06T13:07:36.632Z,2.03
2023-05-06T13:10:03.510Z,2.08
2023-05-06T13:12:30.712Z,2.65
2023-05-06T13:14:55.466Z,2.55
2023-05-06T13:17:20.244Z,2.42
2023-05-06T13:19:47.386Z,2.20
2023-05-06T13:22:13.835Z,2.50
2023-05-06T13:24:40.493Z,2.28
2023-05-06T13:27:06.231Z,2.40
2023-05-06T13:29:33.926Z,1.83
2023-05-06T13:31:59.488Z,2.10
2023-05-06T13:34:24.167Z,1.42
2023-05-06T13:36:49.942Z,2.47
2023-05-06T13:39:16.128Z,2.50
2023-05-06T13:41:41.210Z,1.95
2023-05-06T13:44:06.595Z,1.75
2023-05-06T13:46:33.004Z,1.90
2023-05-06T13:48:57.861Z,1.98
2023-05-06T13:51:22.404Z,2.10
2023-05-06T13:53:48.549Z,1.95
2023-05-06T13:56:13.120Z,1.73
2023-05-06T13:58:38.177Z,2.25
2023-05-06T14:01:03.604Z,1.83
2023-05-06T14:03:30.061Z,1.80
2023-05-06T14:05:55.013Z,2.00
2023-05-06T14:08:20.222Z,1.65
2023-05-06T14:10:46.906Z,1.75
2023-05-06T14:13:11.802Z,1.70
2023-05-06T14:15:37.831Z,1.83
2023-05-06T14:18:04.530Z,1.65
2023-05-06T14:20:30.849Z,1.25
2023-05-06T14:22:55.515Z,1.60
2023-05-06T14:25:27.018Z,1.30
2023-05-06T14:27:51.715Z,1.60
2023-05-06T14:30:16.518Z,2.03
2023-05-06T14:32:41.335Z,1.77
2023-05-06T14:35:06.671Z,1.90
2023-05-06T14:37:32.566Z,2.00
2023-05-06T14:39:58.808Z,1.67
2023-05-06T14:42:23.642Z,1.83
2023-05-06T14:44:50.624Z,1.50
2023-05-06T14:47:15.625Z,1.40
2023-05-06T14:49:40.340Z,1.63
2023-05-06T14:52:05.195Z,1.50
2023-05-06T14:54:31.958Z,1.30
2023-05-06T14:57:01.655Z,1.80
2023-05-06T14:59:27.163Z,1.35
2023-05-06T15:01:51.809Z,1.77
2023-05-06T15:04:16.549Z,1.40
2023-05-06T15:06:41.394Z,1.83
2023-05-06T15:09:06.146Z,1.70
2023-05-06T15:11:32.593Z,1.70
2023-05-06T15:13:57.353Z,1.50
2023-05-06T15:16:22.508Z,1.88
2023-05-06T15:18:47.169Z,1.50
2023-05-06T15:21:13.518Z,1.67
2023-05-06T15:23:39.279Z,2.00
2023-05-06T15:26:04.103Z,1.67
2023-05-06T15:28:31.789Z,1.80
2023-05-06T15:30:56.370Z,1.40
2023-05-06T15:33:20.919Z,1.70
2023-05-06T15:35:46.236Z,1.90
2023-05-06T15:38:11.153Z,1.85
2023-05-06T15:40:36.670Z,1.50
2023-05-06T15:43:01.292Z,1.60
2023-05-06T15:45:27.489Z,1.90
2023-05-06T15:47:52.150Z,1.85
2023-05-06T15:50:31.904Z,1.80
2023-05-06T15:52:58.816Z,1.20
2023-05-06T15:55:26.206Z,1.42
2023-05-06T15:57:52.375Z,1.58
2023-05-06T16:00:17.683Z,1.52
2023-05-06T16:02:44.545Z,1.60
2023-05-06T16:05:10.818Z,1.92
2023-05-06T16:07:35.853Z,1.95
2023-05-06T16:10:00.746Z,1.67
2023-05-06T16:12:25.742Z,2.00
2023-05-06T16:14:51.115Z,2.20
2023-05-06T16:17:17.152Z,1.88
2023-05-06T16:19:43.329Z,1.52
2023-05-06T16:22:08.537Z,1.80
2023-05-06T16:24:36.358Z,2.00
2023-05-06T16:27:01.195Z,2.08
2023-05-06T16:29:25.773Z,1.48
2023-05-06T16:31:50.514Z,1.50
2023-05-06T16:34:15.411Z,2.10
2023-05-06T16:36:42.136Z,1.83
2023-05-06T16:39:07.084Z,1.98
2023-05-06T16:41:31.828Z,1.63
2023-05-06T16:43:56.557Z,1.40
2023-05-06T16:46:23.951Z,2.47
2023-05-06T16:48:49.241Z,2.05
2023-05-06T16:51:15.851Z,2.00
2023-05-06T16:53:42.103Z,1.92
2023-05-06T16:56:07.423Z,1.80
2023-05-06T16:58:32.297Z,1.67
2023-05-06T17:00:57.027Z,2.10
2023-05-06T17:03:21.625Z,1.65
2023-05-06T17:05:46.859Z,2.20
2023-05-06T17:08:12.034Z,1.83
2023-05-06T17:10:38.153Z,2.45
2023-05-06T17:13:02.790Z,2.13
2023-05-06T17:15:27.367Z,2.00
2023-05-06T17:17:52.287Z,2.53
2023-05-06T17:20:19.267Z,4.47
2023-05-06T17:22:43.836Z,7.63
2023-05-06T17:25:09.366Z,6.15
2023-05-06T17:27:35.388Z,2.92
2023-05-06T17:30:01.968Z,9.55
2023-05-06T17:32:32.569Z,2.97
2023-05-06T17:34:57.557Z,3.17
2023-05-06T17:37:22.139Z,12.10
2023-05-06T17:39:47.341Z,4.47
2023-05-06T17:42:12.283Z,7.97
2023-05-06T17:44:39.519Z,4.78
2023-05-06T17:47:06.570Z,3.03
2023-05-06T17:49:31.617Z,3.40
2023-05-06T17:51:58.140Z,2.90
2023-05-06T17:54:41.491Z,2.50
2023-05-06T17:57:06.540Z,2.22
2023-05-06T17:59:33.799Z,2.20
2023-05-06T18:02:04.526Z,3.00
2023-05-06T18:04:29.885Z,3.05
2023-05-06T18:06:54.868Z,2.47
2023-05-06T18:09:19.988Z,5.93
2023-05-06T18:11:46.342Z,6.35
2023-05-06T18:14:11.465Z,3.75
2023-05-06T18:16:37.469Z,2.65
2023-05-06T18:19:05.189Z,3.00
2023-05-06T18:21:30.672Z,8.60
2023-05-06T18:24:01.937Z,9.95
2023-05-06T18:29:10.976Z,5.13
2023-05-06T18:31:38.668Z,7.13
2023-05-06T18:34:04.789Z,5.68
2023-05-06T18:36:30.008Z,4.60
2023-05-06T18:38:54.660Z,3.50
2023-05-06T18:41:19.802Z,4.85
2023-05-06T18:43:44.590Z,7.43
2023-05-06T18:46:10.363Z,20.13
2023-05-06T18:48:38.061Z,8.70
2023-05-06T18:51:18.376Z,6.78
2023-05-06T18:53:46.201Z,3.50
2023-05-06T18:56:14.982Z,3.33
2023-05-06T18:58:41.101Z,2.90
2023-05-06T19:01:06.177Z,2.80
2023-05-06T19:03:31.605Z,3.05
2023-05-06T19:06:00.396Z,2.85
2023-05-06T19:08:26.338Z,3.15
2023-05-06T19:10:50.887Z,2.85
2023-05-06T19:13:15.713Z,2.97
2023-05-06T19:15:40.442Z,3.50
2023-05-06T19:18:06.601Z,3.75
2023-05-06T19:20:32.226Z,2.75
2023-05-06T19:22:56.790Z,3.08
2023-05-06T19:25:22.661Z,2.92
2023-05-06T19:27:47.007Z,3.15
2023-05-06T19:30:12.112Z,3.47
2023-05-06T19:32:36.749Z,2.70
2023-05-06T19:35:07.951Z,3.67
2023-05-06T19:37:35.183Z,2.97
2023-05-06T19:39:59.918Z,3.15
2023-05-06T19:42:25.855Z,3.35
2023-05-06T19:44:53.111Z,3.03
2023-05-06T19:47:17.618Z,3.70
2023-05-06T19:49:42.098Z,3.63
2023-05-06T19:52:07.153Z,3.15
2023-05-06T19:54:31.906Z,3.20
2023-05-06T19:56:56.607Z,3.10
2023-05-06T19:59:24.947Z,3.20
2023-05-06T20:01:49.540Z,3.72
2023-05-06T20:04:14.080Z,3.65
2023-05-06T20:06:38.552Z,3.10
2023-05-06T20:09:03.315Z,4.13
2023-05-06T20:11:31.457Z,3.83
2023-05-06T20:13:55.911Z,3.65
2023-05-06T20:16:22.436Z,4.45
2023-05-06T20:18:47.821Z,4.30
2023-05-06T20:21:12.846Z,4.40
2023-05-06T20:23:37.403Z,4.53
2023-05-06T20:26:02.222Z,4.07
2023-05-06T20:28:27.799Z,3.70
2023-05-06T20:30:52.455Z,3.95
2023-05-06T20:33:19.070Z,4.50
2023-05-06T20:35:43.629Z,3.90
2023-05-06T20:38:09.371Z,4.20
2023-05-06T20:40:42.741Z,3.80
2023-05-06T20:43:07.214Z,3.63
2023-05-06T20:45:31.756Z,3.47
2023-05-06T20:47:56.453Z,3.85
2023-05-06T20:50:22.322Z,4.07
2023-05-06T20:52:47.750Z,4.10
2023-05-06T20:55:14.067Z,3.63
2023-05-06T20:57:43.653Z,4.50
2023-05-06T21:02:41.882Z,3.50
2023-05-06T21:05:08.024Z,4.72
2023-05-06T21:07:34.386Z,3.80
2023-05-06T21:09:58.876Z,3.75
2023-05-06T21:12:23.296Z,3.83
2023-05-06T21:14:47.954Z,5.25
2023-05-06T21:17:12.710Z,4.18
2023-05-06T21:19:37.233Z,3.75
2023-05-06T21:22:02.145Z,3.90
2023-05-06T21:24:28.021Z,4.22
2023-05-06T21:26:53.709Z,3.97
2023-05-06T21:29:18.315Z,4.18
2023-05-06T21:31:42.754Z,4.50
2023-05-06T21:34:08.070Z,4.28
2023-05-06T21:36:32.466Z,4.03
2023-05-06T21:39:03.714Z,3.70
2023-05-06T21:41:29.522Z,3.95
2023-05-06T21:43:53.880Z,4.18
2023-05-06T21:46:18.416Z,4.38
2023-05-06T21:48:43.011Z,4.07
2023-05-06T21:51:07.721Z,4.32
2023-05-06T21:53:32.151Z,3.92
2023-05-06T21:55:57.552Z,3.95
2023-05-06T21:58:23.425Z,4.05
2023-05-06T22:00:47.912Z,4.38
2023-05-06T22:03:12.635Z,4.65
2023-05-06T22:05:37.261Z,4.50
2023-05-06T22:08:01.600Z,3.95
2023-05-06T22:10:26.447Z,4.18
2023-05-06T22:12:51.152Z,4.22
2023-05-06T22:15:17.418Z,4.32
2023-05-06T22:17:42.066Z,4.43
2023-05-06T22:20:11.025Z,4.13
2023-05-06T22:22:35.798Z,3.97
2023-05-06T22:25:01.426Z,4.18
2023-05-06T22:27:28.411Z,4.40
2023-05-06T22:29:52.899Z,4.32
2023-05-06T22:32:18.760Z,3.78
2023-05-06T22:34:43.212Z,4.75
2023-05-06T22:37:10.765Z,4.53
2023-05-06T22:39:35.264Z,4.10
2023-05-06T22:41:59.728Z,4.45
2023-05-06T22:44:24.264Z,4.07
2023-05-06T22:46:48.658Z,4.22
2023-05-06T22:49:15.940Z,4.53
2023-05-06T22:51:40.595Z,4.25
2023-05-06T22:54:05.130Z,3.75
2023-05-06T22:56:29.635Z,4.07
2023-05-06T22:58:54.274Z,4.05
2023-05-06T23:01:19.061Z,4.20
2023-05-06T23:03:43.629Z,4.18
2023-05-06T23:06:09.645Z,4.50
2023-05-06T23:08:34.102Z,4.00
2023-05-06T23:10:58.733Z,4.20
2023-05-06T23:13:23.285Z,4.53
2023-05-06T23:15:47.820Z,4.90
2023-05-06T23:18:12.428Z,4.55
2023-05-06T23:20:36.932Z,4.90
2023-05-06T23:23:03.089Z,4.40
2023-05-06T23:25:27.928Z,4.70
2023-05-06T23:27:52.403Z,4.63
2023-05-06T23:30:17.527Z,5.18
2023-05-06T23:32:42.285Z,6.70
2023-05-06T23:35:07.884Z,8.77
2023-05-06T23:37:32.636Z,8.50
2023-05-06T23:39:59.328Z,8.27
2023-05-06T23:42:25.572Z,8.15
2023-05-06T23:44:50.180Z,6.45
2023-05-06T23:47:14.712Z,6.13
2023-05-06T23:49:39.222Z,5.80
2023-05-06T23:52:03.789Z,5.95
2023-05-06T23:54:28.100Z,6.57
2023-05-06T23:56:54.094Z,5.57
2023-05-06T23:59:18.558Z,5.00
